sensor_id;sensor_type;location;lat;lon;timestamp;P1;durP1;ratioP1;P2;durP2;ratioP2
64157;SDS011;50449;51.528;5.076;2024-03-02T00:00:20;61.33;;;58.53;;
64157;SDS011;50449;51.528;5.076;2024-03-02T00:02:47;65.95;;;62.95;;
64157;SDS011;50449;51.528;5.076;2024-03-02T00:05:17;64.82;;;61.88;;
64157;SDS011;50449;51.528;5.076;2024-03-02T00:08:05;67.07;;;64.07;;
64157;SDS011;50449;51.528;5.076;2024-03-02T00:10:37;61.85;;;59.05;;
64157;SDS011;50449;51.528;5.076;2024-03-02T00:13:07;67.63;;;64.50;;
64157;SDS011;50449;51.528;5.076;2024-03-02T00:18:11;60.67;;;57.88;;
64157;SDS011;50449;51.528;5.076;2024-03-02T00:20:38;66.55;;;63.55;;
64157;SDS011;50449;51.528;5.076;2024-03-02T00:23:07;62.65;;;59.75;;
64157;SDS011;50449;51.528;5.076;2024-03-02T00:28:00;65.50;;;62.47;;
64157;SDS011;50449;51.528;5.076;2024-03-02T00:33:14;60.58;;;57.78;;
64157;SDS011;50449;51.528;5.076;2024-03-02T00:35:39;63.92;;;61.03;;
64157;SDS011;50449;51.528;5.076;2024-03-02T00:38:06;65.82;;;62.72;;
64157;SDS011;50449;51.528;5.076;2024-03-02T00:40:31;65.40;;;62.50;;
64157;SDS011;50449;51.528;5.076;2024-03-02T00:42:57;62.33;;;59.50;;
64157;SDS011;50449;51.528;5.076;2024-03-02T00:45:23;61.45;;;58.70;;
64157;SDS011;50449;51.528;5.076;2024-03-02T00:47:50;69.88;;;66.78;;
64157;SDS011;50449;51.528;5.076;2024-03-02T00:50:15;63.00;;;60.10;;
64157;SDS011;50449;51.528;5.076;2024-03-02T00:52:41;61.00;;;58.10;;
64157;SDS011;50449;51.528;5.076;2024-03-02T00:55:07;62.03;;;59.13;;
64157;SDS011;50449;51.528;5.076;2024-03-02T00:57:33;61.88;;;59.08;;
64157;SDS011;50449;51.528;5.076;2024-03-02T00:59:59;62.15;;;59.33;;
64157;SDS011;50449;51.528;5.076;2024-03-02T01:02:27;65.63;;;62.67;;
64157;SDS011;50449;51.528;5.076;2024-03-02T01:04:54;60.17;;;57.33;;
64157;SDS011;50449;51.528;5.076;2024-03-02T01:07:19;65.45;;;62.55;;
64157;SDS011;50449;51.528;5.076;2024-03-02T01:09:45;59.95;;;57.25;;
64157;SDS011;50449;51.528;5.076;2024-03-02T01:12:10;64.35;;;61.35;;
64157;SDS011;50449;51.528;5.076;2024-03-02T01:14:35;63.30;;;60.45;;
64157;SDS011;50449;51.528;5.076;2024-03-02T01:17:01;67.63;;;64.57;;
64157;SDS011;50449;51.528;5.076;2024-03-02T01:19:29;64.30;;;61.40;;
64157;SDS011;50449;51.528;5.076;2024-03-02T01:21:55;61.13;;;58.38;;
64157;SDS011;50449;51.528;5.076;2024-03-02T01:24:20;64.82;;;61.80;;
64157;SDS011;50449;51.528;5.076;2024-03-02T01:26:45;66.05;;;62.85;;
64157;SDS011;50449;51.528;5.076;2024-03-02T01:29:11;63.72;;;60.47;;
64157;SDS011;50449;51.528;5.076;2024-03-02T01:31:36;65.85;;;62.85;;
64157;SDS011;50449;51.528;5.076;2024-03-02T01:34:01;64.28;;;61.38;;
64157;SDS011;50449;51.528;5.076;2024-03-02T01:36:27;60.65;;;57.88;;
64157;SDS011;50449;51.528;5.076;2024-03-02T01:38:52;63.30;;;60.42;;
64157;SDS011;50449;51.528;5.076;2024-03-02T01:41:18;62.33;;;59.42;;
64157;SDS011;50449;51.528;5.076;2024-03-02T01:43:43;63.05;;;60.20;;
64157;SDS011;50449;51.528;5.076;2024-03-02T01:46:08;62.65;;;59.75;;
64157;SDS011;50449;51.528;5.076;2024-03-02T01:48:34;66.28;;;63.28;;
64157;SDS011;50449;51.528;5.076;2024-03-02T01:50:59;61.90;;;59.10;;
64157;SDS011;50449;51.528;5.076;2024-03-02T01:53:26;62.88;;;59.88;;
64157;SDS011;50449;51.528;5.076;2024-03-02T01:55:51;58.78;;;56.10;;
64157;SDS011;50449;51.528;5.076;2024-03-02T01:58:17;63.63;;;60.67;;
64157;SDS011;50449;51.528;5.076;2024-03-02T02:00:42;61.70;;;58.90;;
64157;SDS011;50449;51.528;5.076;2024-03-02T02:03:08;61.78;;;58.90;;
64157;SDS011;50449;51.528;5.076;2024-03-02T02:05:33;63.42;;;60.55;;
64157;SDS011;50449;51.528;5.076;2024-03-02T02:08:00;59.85;;;57.10;;
64157;SDS011;50449;51.528;5.076;2024-03-02T02:10:26;63.08;;;60.22;;
64157;SDS011;50449;51.528;5.076;2024-03-02T02:12:51;64.60;;;61.70;;
64157;SDS011;50449;51.528;5.076;2024-03-02T02:15:26;62.63;;;59.72;;
64157;SDS011;50449;51.528;5.076;2024-03-02T02:17:53;62.35;;;59.55;;
64157;SDS011;50449;51.528;5.076;2024-03-02T02:20:19;65.47;;;62.47;;
64157;SDS011;50449;51.528;5.076;2024-03-02T02:25:23;64.65;;;61.65;;
64157;SDS011;50449;51.528;5.076;2024-03-02T02:27:49;59.10;;;56.40;;
64157;SDS011;50449;51.528;5.076;2024-03-02T02:30:18;64.30;;;61.25;;
64157;SDS011;50449;51.528;5.076;2024-03-02T02:35:18;56.58;;;53.92;;
64157;SDS011;50449;51.528;5.076;2024-03-02T02:37:45;56.42;;;53.85;;
64157;SDS011;50449;51.528;5.076;2024-03-02T02:40:11;60.42;;;57.47;;
64157;SDS011;50449;51.528;5.076;2024-03-02T02:42:37;62.85;;;60.03;;
64157;SDS011;50449;51.528;5.076;2024-03-02T02:45:03;60.05;;;57.35;;
64157;SDS011;50449;51.528;5.076;2024-03-02T02:47:29;63.00;;;60.20;;
64157;SDS011;50449;51.528;5.076;2024-03-02T02:49:55;59.50;;;56.80;;
64157;SDS011;50449;51.528;5.076;2024-03-02T02:52:20;62.30;;;59.40;;
64157;SDS011;50449;51.528;5.076;2024-03-02T02:54:46;60.97;;;58.17;;
64157;SDS011;50449;51.528;5.076;2024-03-02T02:57:11;61.90;;;59.08;;
64157;SDS011;50449;51.528;5.076;2024-03-02T02:59:37;64.15;;;61.28;;
64157;SDS011;50449;51.528;5.076;2024-03-02T03:02:02;60.42;;;57.72;;
64157;SDS011;50449;51.528;5.076;2024-03-02T03:04:28;60.58;;;57.67;;
64157;SDS011;50449;51.528;5.076;2024-03-02T03:06:53;60.55;;;57.83;;
64157;SDS011;50449;51.528;5.076;2024-03-02T03:09:18;65.53;;;62.42;;
64157;SDS011;50449;51.528;5.076;2024-03-02T03:11:44;61.17;;;58.35;;
64157;SDS011;50449;51.528;5.076;2024-03-02T03:14:09;63.60;;;60.70;;
64157;SDS011;50449;51.528;5.076;2024-03-02T03:16:35;64.68;;;61.78;;
64157;SDS011;50449;51.528;5.076;2024-03-02T03:19:01;61.15;;;58.40;;
64157;SDS011;50449;51.528;5.076;2024-03-02T03:21:26;62.42;;;59.53;;
64157;SDS011;50449;51.528;5.076;2024-03-02T03:23:51;61.47;;;58.67;;
64157;SDS011;50449;51.528;5.076;2024-03-02T03:26:17;64.38;;;61.40;;
64157;SDS011;50449;51.528;5.076;2024-03-02T03:28:42;65.30;;;62.38;;
64157;SDS011;50449;51.528;5.076;2024-03-02T03:31:08;62.83;;;60.03;;
64157;SDS011;50449;51.528;5.076;2024-03-02T03:33:33;59.40;;;56.70;;
64157;SDS011;50449;51.528;5.076;2024-03-02T03:35:59;60.78;;;57.97;;
64157;SDS011;50449;51.528;5.076;2024-03-02T03:38:27;61.28;;;58.38;;
64157;SDS011;50449;51.528;5.076;2024-03-02T03:40:52;61.15;;;58.38;;
64157;SDS011;50449;51.528;5.076;2024-03-02T03:43:17;60.25;;;57.47;;
64157;SDS011;50449;51.528;5.076;2024-03-02T03:45:43;58.72;;;56.05;;
64157;SDS011;50449;51.528;5.076;2024-03-02T03:48:08;59.38;;;56.67;;
64157;SDS011;50449;51.528;5.076;2024-03-02T03:50:34;62.13;;;59.22;;
64157;SDS011;50449;51.528;5.076;2024-03-02T03:52:59;56.88;;;54.28;;
64157;SDS011;50449;51.528;5.076;2024-03-02T03:55:24;64.55;;;61.35;;
64157;SDS011;50449;51.528;5.076;2024-03-02T03:57:50;59.20;;;56.50;;
64157;SDS011;50449;51.528;5.076;2024-03-02T04:00:15;59.58;;;56.88;;
64157;SDS011;50449;51.528;5.076;2024-03-02T04:02:41;64.28;;;61.38;;
64157;SDS011;50449;51.528;5.076;2024-03-02T04:05:06;61.85;;;59.05;;
64157;SDS011;50449;51.528;5.076;2024-03-02T04:10:05;54.35;;;51.85;;
64157;SDS011;50449;51.528;5.076;2024-03-02T04:12:33;63.78;;;60.80;;
64157;SDS011;50449;51.528;5.076;2024-03-02T04:14:58;66.25;;;63.30;;
64157;SDS011;50449;51.528;5.076;2024-03-02T04:17:24;64.72;;;61.72;;
64157;SDS011;50449;51.528;5.076;2024-03-02T04:19:49;64.22;;;61.35;;
64157;SDS011;50449;51.528;5.076;2024-03-02T04:22:15;64.70;;;61.80;;
64157;SDS011;50449;51.528;5.076;2024-03-02T04:24:40;59.13;;;56.42;;
64157;SDS011;50449;51.528;5.076;2024-03-02T04:27:05;57.85;;;55.22;;
64157;SDS011;50449;51.528;5.076;2024-03-02T04:29:31;58.58;;;55.85;;
64157;SDS011;50449;51.528;5.076;2024-03-02T04:31:56;59.40;;;56.70;;
64157;SDS011;50449;51.528;5.076;2024-03-02T04:34:21;55.80;;;53.25;;
64157;SDS011;50449;51.528;5.076;2024-03-02T04:36:47;60.95;;;58.20;;
64157;SDS011;50449;51.528;5.076;2024-03-02T04:39:12;61.95;;;59.05;;
64157;SDS011;50449;51.528;5.076;2024-03-02T04:41:38;63.70;;;60.70;;
64157;SDS011;50449;51.528;5.076;2024-03-02T04:44:03;62.60;;;59.72;;
64157;SDS011;50449;51.528;5.076;2024-03-02T04:46:29;64.18;;;61.17;;
64157;SDS011;50449;51.528;5.076;2024-03-02T04:48:54;57.30;;;54.70;;
64157;SDS011;50449;51.528;5.076;2024-03-02T04:51:22;62.22;;;59.33;;
64157;SDS011;50449;51.528;5.076;2024-03-02T04:53:47;61.00;;;58.20;;
64157;SDS011;50449;51.528;5.076;2024-03-02T04:56:13;59.78;;;57.03;;
64157;SDS011;50449;51.528;5.076;2024-03-02T04:58:47;62.17;;;59.38;;
64157;SDS011;50449;51.528;5.076;2024-03-02T05:01:13;57.33;;;54.67;;
64157;SDS011;50449;51.528;5.076;2024-03-02T05:03:38;61.05;;;58.20;;
64157;SDS011;50449;51.528;5.076;2024-03-02T05:06:03;55.15;;;52.55;;
64157;SDS011;50449;51.528;5.076;2024-03-02T05:08:29;65.43;;;62.42;;
64157;SDS011;50449;51.528;5.076;2024-03-02T05:10:54;58.30;;;55.65;;
64157;SDS011;50449;51.528;5.076;2024-03-02T05:13:23;58.53;;;55.83;;
64157;SDS011;50449;51.528;5.076;2024-03-02T05:15:48;62.83;;;59.97;;
64157;SDS011;50449;51.528;5.076;2024-03-02T05:18:14;59.45;;;56.78;;
64157;SDS011;50449;51.528;5.076;2024-03-02T05:20:39;61.35;;;58.45;;
64157;SDS011;50449;51.528;5.076;2024-03-02T05:23:05;60.05;;;57.35;;
64157;SDS011;50449;51.528;5.076;2024-03-02T05:25:31;58.55;;;55.83;;
64157;SDS011;50449;51.528;5.076;2024-03-02T05:27:57;60.35;;;57.63;;
64157;SDS011;50449;51.528;5.076;2024-03-02T05:30:22;59.15;;;56.45;;
64157;SDS011;50449;51.528;5.076;2024-03-02T05:32:47;58.35;;;55.67;;
64157;SDS011;50449;51.528;5.076;2024-03-02T05:35:13;61.03;;;58.30;;
64157;SDS011;50449;51.528;5.076;2024-03-02T05:37:38;59.00;;;56.20;;
64157;SDS011;50449;51.528;5.076;2024-03-02T05:40:04;61.22;;;58.42;;
64157;SDS011;50449;51.528;5.076;2024-03-02T05:42:30;58.88;;;56.17;;
64157;SDS011;50449;51.528;5.076;2024-03-02T05:44:56;60.47;;;57.72;;
64157;SDS011;50449;51.528;5.076;2024-03-02T05:47:21;62.65;;;59.85;;
64157;SDS011;50449;51.528;5.076;2024-03-02T05:49:46;62.88;;;59.63;;
64157;SDS011;50449;51.528;5.076;2024-03-02T05:52:12;60.92;;;58.13;;
64157;SDS011;50449;51.528;5.076;2024-03-02T05:54:37;64.72;;;61.70;;
64157;SDS011;50449;51.528;5.076;2024-03-02T05:57:03;59.05;;;56.40;;
64157;SDS011;50449;51.528;5.076;2024-03-02T05:59:42;59.95;;;56.95;;
64157;SDS011;50449;51.528;5.076;2024-03-02T06:02:08;60.03;;;57.33;;
64157;SDS011;50449;51.528;5.076;2024-03-02T06:04:34;60.70;;;57.80;;
64157;SDS011;50449;51.528;5.076;2024-03-02T06:06:59;62.97;;;60.08;;
64157;SDS011;50449;51.528;5.076;2024-03-02T06:09:24;61.97;;;59.17;;
64157;SDS011;50449;51.528;5.076;2024-03-02T06:11:51;60.50;;;57.60;;
64157;SDS011;50449;51.528;5.076;2024-03-02T06:14:16;61.40;;;58.13;;
64157;SDS011;50449;51.528;5.076;2024-03-02T06:16:42;63.42;;;60.42;;
64157;SDS011;50449;51.528;5.076;2024-03-02T06:19:07;59.60;;;56.90;;
64157;SDS011;50449;51.528;5.076;2024-03-02T06:21:32;57.22;;;54.63;;
64157;SDS011;50449;51.528;5.076;2024-03-02T06:23:58;61.60;;;58.78;;
64157;SDS011;50449;51.528;5.076;2024-03-02T06:26:23;62.22;;;59.40;;
64157;SDS011;50449;51.528;5.076;2024-03-02T06:28:49;56.95;;;54.25;;
64157;SDS011;50449;51.528;5.076;2024-03-02T06:31:14;56.58;;;53.97;;
64157;SDS011;50449;51.528;5.076;2024-03-02T06:33:40;56.58;;;53.88;;
64157;SDS011;50449;51.528;5.076;2024-03-02T06:36:06;57.15;;;54.55;;
64157;SDS011;50449;51.528;5.076;2024-03-02T06:38:36;55.28;;;52.67;;
64157;SDS011;50449;51.528;5.076;2024-03-02T06:41:02;59.70;;;55.88;;
64157;SDS011;50449;51.528;5.076;2024-03-02T06:43:28;55.55;;;52.97;;
64157;SDS011;50449;51.528;5.076;2024-03-02T06:45:53;56.72;;;54.05;;
64157;SDS011;50449;51.528;5.076;2024-03-02T06:48:19;55.63;;;53.05;;
64157;SDS011;50449;51.528;5.076;2024-03-02T06:50:48;55.03;;;52.42;;
64157;SDS011;50449;51.528;5.076;2024-03-02T06:53:14;53.22;;;50.78;;
64157;SDS011;50449;51.528;5.076;2024-03-02T06:55:44;58.13;;;55.33;;
64157;SDS011;50449;51.528;5.076;2024-03-02T06:58:13;54.83;;;52.33;;
64157;SDS011;50449;51.528;5.076;2024-03-02T07:00:40;58.90;;;56.15;;
64157;SDS011;50449;51.528;5.076;2024-03-02T07:03:06;60.35;;;57.60;;
64157;SDS011;50449;51.528;5.076;2024-03-02T07:05:31;56.17;;;53.58;;
64157;SDS011;50449;51.528;5.076;2024-03-02T07:07:57;57.13;;;54.53;;
64157;SDS011;50449;51.528;5.076;2024-03-02T07:10:22;53.88;;;51.38;;
64157;SDS011;50449;51.528;5.076;2024-03-02T07:12:48;56.47;;;53.78;;
64157;SDS011;50449;51.528;5.076;2024-03-02T07:15:13;60.10;;;57.40;;
64157;SDS011;50449;51.528;5.076;2024-03-02T07:17:57;55.65;;;53.10;;
64157;SDS011;50449;51.528;5.076;2024-03-02T07:20:22;52.88;;;50.40;;
64157;SDS011;50449;51.528;5.076;2024-03-02T07:22:48;56.63;;;53.92;;
64157;SDS011;50449;51.528;5.076;2024-03-02T07:25:13;53.95;;;51.47;;
64157;SDS011;50449;51.528;5.076;2024-03-02T07:27:39;53.95;;;51.45;;
64157;SDS011;50449;51.528;5.076;2024-03-02T07:30:05;56.58;;;54.00;;
64157;SDS011;50449;51.528;5.076;2024-03-02T07:32:32;55.80;;;53.20;;
64157;SDS011;50449;51.528;5.076;2024-03-02T07:34:57;62.15;;;59.20;;
64157;SDS011;50449;51.528;5.076;2024-03-02T07:37:23;56.15;;;53.13;;
64157;SDS011;50449;51.528;5.076;2024-03-02T07:39:49;61.47;;;58.58;;
64157;SDS011;50449;51.528;5.076;2024-03-02T07:42:15;58.00;;;54.65;;
64157;SDS011;50449;51.528;5.076;2024-03-02T07:44:41;58.65;;;55.95;;
64157;SDS011;50449;51.528;5.076;2024-03-02T07:47:06;55.05;;;52.53;;
64157;SDS011;50449;51.528;5.076;2024-03-02T07:49:32;55.63;;;53.08;;
64157;SDS011;50449;51.528;5.076;2024-03-02T07:51:57;52.90;;;50.40;;
64157;SDS011;50449;51.528;5.076;2024-03-02T07:54:23;57.70;;;54.88;;
64157;SDS011;50449;51.528;5.076;2024-03-02T07:56:49;58.17;;;55.47;;
64157;SDS011;50449;51.528;5.076;2024-03-02T07:59:14;53.15;;;50.55;;
64157;SDS011;50449;51.528;5.076;2024-03-02T08:01:40;56.05;;;53.53;;
64157;SDS011;50449;51.528;5.076;2024-03-02T08:04:05;58.60;;;55.95;;
64157;SDS011;50449;51.528;5.076;2024-03-02T08:06:31;56.42;;;53.83;;
64157;SDS011;50449;51.528;5.076;2024-03-02T08:08:57;57.00;;;54.28;;
64157;SDS011;50449;51.528;5.076;2024-03-02T08:11:24;54.92;;;52.42;;
64157;SDS011;50449;51.528;5.076;2024-03-02T08:13:49;54.53;;;51.75;;
64157;SDS011;50449;51.528;5.076;2024-03-02T08:16:15;55.33;;;52.72;;
64157;SDS011;50449;51.528;5.076;2024-03-02T08:18:41;57.22;;;54.60;;
64157;SDS011;50449;51.528;5.076;2024-03-02T08:21:07;56.70;;;54.10;;
64157;SDS011;50449;51.528;5.076;2024-03-02T08:23:33;55.58;;;53.00;;
64157;SDS011;50449;51.528;5.076;2024-03-02T08:25:59;57.17;;;54.42;;
64157;SDS011;50449;51.528;5.076;2024-03-02T08:28:24;55.95;;;53.40;;
64157;SDS011;50449;51.528;5.076;2024-03-02T08:30:49;58.90;;;56.13;;
64157;SDS011;50449;51.528;5.076;2024-03-02T08:33:15;58.20;;;55.40;;
64157;SDS011;50449;51.528;5.076;2024-03-02T08:35:40;52.95;;;50.15;;
64157;SDS011;50449;51.528;5.076;2024-03-02T08:38:06;59.00;;;56.30;;
64157;SDS011;50449;51.528;5.076;2024-03-02T08:40:31;57.38;;;54.58;;
64157;SDS011;50449;51.528;5.076;2024-03-02T08:42:57;55.45;;;52.75;;
64157;SDS011;50449;51.528;5.076;2024-03-02T08:45:22;58.50;;;55.80;;
64157;SDS011;50449;51.528;5.076;2024-03-02T08:47:48;57.03;;;54.40;;
64157;SDS011;50449;51.528;5.076;2024-03-02T08:50:13;55.45;;;52.92;;
64157;SDS011;50449;51.528;5.076;2024-03-02T08:52:38;55.13;;;52.55;;
64157;SDS011;50449;51.528;5.076;2024-03-02T08:55:04;59.60;;;56.80;;
64157;SDS011;50449;51.528;5.076;2024-03-02T08:57:30;55.80;;;53.15;;
64157;SDS011;50449;51.528;5.076;2024-03-02T08:59:56;57.08;;;54.28;;
64157;SDS011;50449;51.528;5.076;2024-03-02T09:02:22;50.83;;;48.35;;
64157;SDS011;50449;51.528;5.076;2024-03-02T09:04:48;55.58;;;53.05;;
64157;SDS011;50449;51.528;5.076;2024-03-02T09:07:14;53.80;;;51.25;;
64157;SDS011;50449;51.528;5.076;2024-03-02T09:09:39;57.13;;;54.53;;
64157;SDS011;50449;51.528;5.076;2024-03-02T09:12:05;54.60;;;51.70;;
64157;SDS011;50449;51.528;5.076;2024-03-02T09:14:32;57.22;;;54.58;;
64157;SDS011;50449;51.528;5.076;2024-03-02T09:16:57;55.00;;;52.40;;
64157;SDS011;50449;51.528;5.076;2024-03-02T09:19:23;51.85;;;49.35;;
64157;SDS011;50449;51.528;5.076;2024-03-02T09:21:48;57.47;;;54.85;;
64157;SDS011;50449;51.528;5.076;2024-03-02T09:24:15;57.35;;;54.75;;
64157;SDS011;50449;51.528;5.076;2024-03-02T09:26:40;61.85;;;59.05;;
64157;SDS011;50449;51.528;5.076;2024-03-02T09:29:06;58.33;;;55.17;;
64157;SDS011;50449;51.528;5.076;2024-03-02T09:31:31;55.08;;;52.28;;
64157;SDS011;50449;51.528;5.076;2024-03-02T09:33:56;54.95;;;52.33;;
64157;SDS011;50449;51.528;5.076;2024-03-02T09:36:22;55.95;;;52.63;;
64157;SDS011;50449;51.528;5.076;2024-03-02T09:38:48;52.33;;;49.92;;
64157;SDS011;50449;51.528;5.076;2024-03-02T09:41:14;53.53;;;50.72;;
64157;SDS011;50449;51.528;5.076;2024-03-02T09:43:40;49.75;;;47.45;;
64157;SDS011;50449;51.528;5.076;2024-03-02T09:46:07;56.60;;;53.58;;
64157;SDS011;50449;51.528;5.076;2024-03-02T09:48:34;58.22;;;55.22;;
64157;SDS011;50449;51.528;5.076;2024-03-02T09:51:00;52.70;;;50.10;;
64157;SDS011;50449;51.528;5.076;2024-03-02T09:53:28;56.85;;;53.92;;
64157;SDS011;50449;51.528;5.076;2024-03-02T09:55:56;52.25;;;49.75;;
64157;SDS011;50449;51.528;5.076;2024-03-02T09:58:22;54.70;;;52.00;;
64157;SDS011;50449;51.528;5.076;2024-03-02T10:00:47;54.25;;;51.65;;
64157;SDS011;50449;51.528;5.076;2024-03-02T10:03:14;56.90;;;54.08;;
64157;SDS011;50449;51.528;5.076;2024-03-02T10:05:39;53.58;;;51.03;;
64157;SDS011;50449;51.528;5.076;2024-03-02T10:08:05;59.00;;;55.95;;
64157;SDS011;50449;51.528;5.076;2024-03-02T10:10:38;56.10;;;53.55;;
64157;SDS011;50449;51.528;5.076;2024-03-02T10:13:08;55.25;;;52.55;;
64157;SDS011;50449;51.528;5.076;2024-03-02T10:15:35;52.80;;;50.40;;
64157;SDS011;50449;51.528;5.076;2024-03-02T10:18:11;57.63;;;54.83;;
64157;SDS011;50449;51.528;5.076;2024-03-02T10:20:37;52.40;;;50.00;;
64157;SDS011;50449;51.528;5.076;2024-03-02T10:23:13;58.10;;;55.38;;
64157;SDS011;50449;51.528;5.076;2024-03-02T10:25:40;53.67;;;50.97;;
64157;SDS011;50449;51.528;5.076;2024-03-02T10:28:06;52.63;;;50.13;;
64157;SDS011;50449;51.528;5.076;2024-03-02T10:30:34;54.58;;;52.08;;
64157;SDS011;50449;51.528;5.076;2024-03-02T10:33:03;57.60;;;54.95;;
64157;SDS011;50449;51.528;5.076;2024-03-02T10:35:31;50.83;;;48.53;;
64157;SDS011;50449;51.528;5.076;2024-03-02T10:37:58;56.50;;;53.45;;
64157;SDS011;50449;51.528;5.076;2024-03-02T10:40:26;56.00;;;53.40;;
64157;SDS011;50449;51.528;5.076;2024-03-02T10:42:52;55.80;;;53.10;;
64157;SDS011;50449;51.528;5.076;2024-03-02T10:45:19;61.10;;;58.00;;
64157;SDS011;50449;51.528;5.076;2024-03-02T10:47:47;57.15;;;54.53;;
64157;SDS011;50449;51.528;5.076;2024-03-02T10:50:13;57.63;;;54.88;;
64157;SDS011;50449;51.528;5.076;2024-03-02T10:52:38;56.20;;;53.35;;
64157;SDS011;50449;51.528;5.076;2024-03-02T10:55:04;56.67;;;54.03;;
64157;SDS011;50449;51.528;5.076;2024-03-02T10:57:33;55.92;;;53.15;;
64157;SDS011;50449;51.528;5.076;2024-03-02T11:00:17;56.20;;;53.55;;
64157;SDS011;50449;51.528;5.076;2024-03-02T11:02:51;58.55;;;55.45;;
64157;SDS011;50449;51.528;5.076;2024-03-02T11:05:27;59.53;;;56.80;;
64157;SDS011;50449;51.528;5.076;2024-03-02T11:07:56;59.88;;;57.08;;
64157;SDS011;50449;51.528;5.076;2024-03-02T11:10:30;57.97;;;54.85;;
64157;SDS011;50449;51.528;5.076;2024-03-02T11:13:02;58.25;;;55.60;;
64157;SDS011;50449;51.528;5.076;2024-03-02T11:15:34;60.60;;;57.88;;
64157;SDS011;50449;51.528;5.076;2024-03-02T11:18:01;59.38;;;56.58;;
64157;SDS011;50449;51.528;5.076;2024-03-02T11:20:30;56.90;;;54.30;;
64157;SDS011;50449;51.528;5.076;2024-03-02T11:22:56;56.92;;;54.33;;
64157;SDS011;50449;51.528;5.076;2024-03-02T11:25:25;61.92;;;59.08;;
64157;SDS011;50449;51.528;5.076;2024-03-02T11:32:59;59.47;;;56.67;;
64157;SDS011;50449;51.528;5.076;2024-03-02T11:35:25;64.20;;;61.30;;
64157;SDS011;50449;51.528;5.076;2024-03-02T11:37:52;61.92;;;59.13;;
64157;SDS011;50449;51.528;5.076;2024-03-02T11:40:24;59.17;;;56.33;;
64157;SDS011;50449;51.528;5.076;2024-03-02T11:42:50;57.20;;;54.47;;
64157;SDS011;50449;51.528;5.076;2024-03-02T11:45:22;58.65;;;54.90;;
64157;SDS011;50449;51.528;5.076;2024-03-02T11:47:58;62.15;;;59.15;;
64157;SDS011;50449;51.528;5.076;2024-03-02T11:50:31;62.58;;;59.47;;
64157;SDS011;50449;51.528;5.076;2024-03-02T11:52:59;59.00;;;56.30;;
64157;SDS011;50449;51.528;5.076;2024-03-02T11:55:25;61.33;;;58.13;;
64157;SDS011;50449;51.528;5.076;2024-03-02T11:57:54;63.17;;;60.17;;
64157;SDS011;50449;51.528;5.076;2024-03-02T12:00:20;57.40;;;54.70;;
64157;SDS011;50449;51.528;5.076;2024-03-02T12:02:47;65.95;;;62.45;;
64157;SDS011;50449;51.528;5.076;2024-03-02T12:05:29;58.67;;;55.97;;
64157;SDS011;50449;51.528;5.076;2024-03-02T12:07:59;59.05;;;56.25;;
64157;SDS011;50449;51.528;5.076;2024-03-02T12:10:25;62.22;;;59.30;;
64157;SDS011;50449;51.528;5.076;2024-03-02T12:13:04;65.13;;;62.08;;
64157;SDS011;50449;51.528;5.076;2024-03-02T12:15:33;61.30;;;58.47;;
64157;SDS011;50449;51.528;5.076;2024-03-02T12:18:00;61.83;;;58.92;;
64157;SDS011;50449;51.528;5.076;2024-03-02T12:20:27;65.00;;;61.90;;
64157;SDS011;50449;51.528;5.076;2024-03-02T12:22:54;60.13;;;56.92;;
64157;SDS011;50449;51.528;5.076;2024-03-02T12:25:21;65.38;;;61.80;;
64157;SDS011;50449;51.528;5.076;2024-03-02T12:27:49;64.50;;;61.20;;
64157;SDS011;50449;51.528;5.076;2024-03-02T12:30:20;65.22;;;61.58;;
64157;SDS011;50449;51.528;5.076;2024-03-02T12:32:46;60.80;;;58.00;;
64157;SDS011;50449;51.528;5.076;2024-03-02T12:35:12;66.20;;;63.03;;
64157;SDS011;50449;51.528;5.076;2024-03-02T12:37:45;63.85;;;60.75;;
64157;SDS011;50449;51.528;5.076;2024-03-02T12:40:12;59.95;;;57.20;;
64157;SDS011;50449;51.528;5.076;2024-03-02T12:42:41;68.18;;;65.10;;
64157;SDS011;50449;51.528;5.076;2024-03-02T12:45:07;65.68;;;62.67;;
64157;SDS011;50449;51.528;5.076;2024-03-02T12:47:33;64.97;;;62.00;;
64157;SDS011;50449;51.528;5.076;2024-03-02T12:49:59;65.65;;;62.38;;
64157;SDS011;50449;51.528;5.076;2024-03-02T12:52:25;67.65;;;64.45;;
64157;SDS011;50449;51.528;5.076;2024-03-02T12:54:51;67.72;;;64.63;;
64157;SDS011;50449;51.528;5.076;2024-03-02T12:57:20;67.80;;;64.35;;
64157;SDS011;50449;51.528;5.076;2024-03-02T12:59:45;64.00;;;61.13;;
64157;SDS011;50449;51.528;5.076;2024-03-02T13:02:17;66.82;;;63.58;;
64157;SDS011;50449;51.528;5.076;2024-03-02T13:04:43;62.80;;;59.90;;
64157;SDS011;50449;51.528;5.076;2024-03-02T13:07:08;62.83;;;59.97;;
64157;SDS011;50449;51.528;5.076;2024-03-02T13:09:37;67.88;;;64.80;;
64157;SDS011;50449;51.528;5.076;2024-03-02T13:12:02;64.63;;;61.45;;
64157;SDS011;50449;51.528;5.076;2024-03-02T13:14:31;68.60;;;65.40;;
64157;SDS011;50449;51.528;5.076;2024-03-02T13:16:57;69.85;;;66.75;;
64157;SDS011;50449;51.528;5.076;2024-03-02T13:19:25;67.93;;;64.72;;
64157;SDS011;50449;51.528;5.076;2024-03-02T13:21:50;68.63;;;65.53;;
64157;SDS011;50449;51.528;5.076;2024-03-02T13:24:16;70.32;;;66.70;;
64157;SDS011;50449;51.528;5.076;2024-03-02T13:26:41;66.88;;;63.88;;
64157;SDS011;50449;51.528;5.076;2024-03-02T13:29:07;69.43;;;66.22;;
64157;SDS011;50449;51.528;5.076;2024-03-02T13:31:33;68.57;;;65.18;;
64157;SDS011;50449;51.528;5.076;2024-03-02T13:33:58;68.28;;;64.68;;
64157;SDS011;50449;51.528;5.076;2024-03-02T13:36:23;72.18;;;68.25;;
64157;SDS011;50449;51.528;5.076;2024-03-02T13:38:49;70.18;;;66.88;;
64157;SDS011;50449;51.528;5.076;2024-03-02T13:41:14;66.63;;;63.42;;
64157;SDS011;50449;51.528;5.076;2024-03-02T13:43:41;71.55;;;68.15;;
64157;SDS011;50449;51.528;5.076;2024-03-02T13:46:06;69.85;;;66.75;;
64157;SDS011;50449;51.528;5.076;2024-03-02T13:48:32;69.90;;;66.60;;
64157;SDS011;50449;51.528;5.076;2024-03-02T13:50:57;68.93;;;65.80;;
64157;SDS011;50449;51.528;5.076;2024-03-02T13:53:23;72.07;;;68.53;;
64157;SDS011;50449;51.528;5.076;2024-03-02T13:55:48;70.13;;;66.90;;
64157;SDS011;50449;51.528;5.076;2024-03-02T13:58:14;71.45;;;68.20;;
64157;SDS011;50449;51.528;5.076;2024-03-02T14:00:40;73.20;;;69.95;;
64157;SDS011;50449;51.528;5.076;2024-03-02T14:03:08;72.15;;;68.88;;
64157;SDS011;50449;51.528;5.076;2024-03-02T14:05:34;75.50;;;71.85;;
64157;SDS011;50449;51.528;5.076;2024-03-02T14:07:59;74.15;;;70.35;;
64157;SDS011;50449;51.528;5.076;2024-03-02T14:10:29;74.43;;;70.60;;
64157;SDS011;50449;51.528;5.076;2024-03-02T14:12:54;74.00;;;70.20;;
64157;SDS011;50449;51.528;5.076;2024-03-02T14:15:22;72.65;;;69.03;;
64157;SDS011;50449;51.528;5.076;2024-03-02T14:17:49;79.32;;;75.13;;
64157;SDS011;50449;51.528;5.076;2024-03-02T14:20:15;76.28;;;72.57;;
64157;SDS011;50449;51.528;5.076;2024-03-02T14:22:46;73.80;;;70.30;;
64157;SDS011;50449;51.528;5.076;2024-03-02T14:25:12;74.22;;;70.78;;
64157;SDS011;50449;51.528;5.076;2024-03-02T14:27:38;80.25;;;76.30;;
64157;SDS011;50449;51.528;5.076;2024-03-02T14:30:03;73.60;;;70.10;;
64157;SDS011;50449;51.528;5.076;2024-03-02T14:32:30;74.35;;;70.65;;
64157;SDS011;50449;51.528;5.076;2024-03-02T14:34:55;75.22;;;71.60;;
64157;SDS011;50449;51.528;5.076;2024-03-02T14:37:21;76.22;;;72.82;;